EGLC Airport Information

Runway Information
Runway 09 Length 4948 ft width 98 ft
Elevation 16 ft Threshold 358 ft Heading 93
Runway 27 Length 4948 ft Width 98 ft
Elevation 19 ft Threshold 211 ft Heading 273
Airport Frequencies
Type APP Name APP Frequency 132.7 MHZ
Type ATIS Name ATIS Frequency 136.35 MHZ
Type GND Name GND Frequency 121.825 MHZ
Type TWR Name TWR Frequency 118.075 MHZ
Airport Navaids
Type NDB Name City Frequency 322 KHZ
Airport Weather Information & NOTAM
ADDS - METARS form results

(1125 UTC 07 February 2023)
Data provider http://aviationweather.gov/metar/data/
 
METAR text: EGLC 071120Z AUTO VRB01KT 0150 R09/0200N FG VV/// 02/02 Q1040
Conditions at: EGLC (LONDON CITY AIRP, GB) observed 1120 UTC 07 February 2023
Temperature: 2.0°C (36°F)
Dewpoint: 2.0°C (36°F) [RH = 100%]
Pressure (altimeter): 30.71 inches Hg (1040.0 mb)
Winds: variable direction winds at 1 MPH (1 knots; 0.5 m/s)
Visibility: 0.09 miles (0.14 km)
Ceiling: indefinite ceiling with vertical visibility of 0 feet AGL
Clouds: obscured sky
Weather: FG  (fog)

METAR text: EGLC 071050Z AUTO VRB01KT 0150 R09/0200N FG VV/// 01/01 Q1040
Conditions at: EGLC (LONDON CITY AIRP, GB) observed 1050 UTC 07 February 2023
Temperature: 1.0°C (34°F)
Dewpoint: 1.0°C (34°F) [RH = 100%]
Pressure (altimeter): 30.71 inches Hg (1040.0 mb)
Winds: variable direction winds at 1 MPH (1 knots; 0.5 m/s)
Visibility: 0.09 miles (0.14 km)
Ceiling: indefinite ceiling with vertical visibility of 0 feet AGL
Clouds: obscured sky
Weather: FG  (fog)

Forecast for: EGLC (LONDON CITY AIRP, GB)
Text: TAF EGLC 071102Z 0712/0721 VRB02KT 0300 FG VV///
Forecast period: 1200 to 2100 UTC 07 February 2023
Forecast type: FROM: standard forecast or significant change
Winds: variable direction winds at 2 MPH (2 knots; 1.0 m/s)
Visibility: 0.19 miles (0.31 km)
Ceiling: unknown
Clouds: missing
Weather: FG  (fog)
Text: BECMG 0712/0715 CAVOK
Forecast period: 1200 to 2100 UTC 07 February 2023
Forecast type: BECOMING: Conditions expected to become as follows by 1500 UTC 07 February 2023
Winds: variable direction winds at 2 MPH (2 knots; 1.0 m/s)
Visibility: 6 or more miles (10+ km)
Ceiling: unknown
Clouds: missing
Weather: NSW  (no significant weather)